createdAt,value
2023-02-17T00:00:19.372Z,4.38
2023-02-17T00:02:57.166Z,3.90
2023-02-17T00:05:30.111Z,4.13
2023-02-17T00:08:03.043Z,3.92
2023-02-17T00:10:37.696Z,4.05
2023-02-17T00:13:10.646Z,3.63
2023-02-17T00:15:43.558Z,4.00
2023-02-17T00:18:16.492Z,4.00
2023-02-17T00:20:49.397Z,3.60
2023-02-17T00:23:22.282Z,3.47
2023-02-17T00:25:56.559Z,3.85
2023-02-17T00:28:29.449Z,3.65
2023-02-17T00:31:07.598Z,3.63
2023-02-17T00:33:40.553Z,3.75
2023-02-17T00:36:17.797Z,3.20
2023-02-17T00:38:50.781Z,3.80
2023-02-17T00:41:26.566Z,3.55
2023-02-17T00:44:00.113Z,3.83
2023-02-17T00:46:33.136Z,4.13
2023-02-17T00:49:06.007Z,3.30
2023-02-17T00:51:38.865Z,3.88
2023-02-17T00:54:11.904Z,3.47
2023-02-17T00:56:46.574Z,3.47
2023-02-17T00:59:19.604Z,3.72
2023-02-17T01:01:52.547Z,3.30
2023-02-17T01:04:25.612Z,3.47
2023-02-17T01:06:58.617Z,3.30
2023-02-17T01:09:31.589Z,3.83
2023-02-17T01:12:06.120Z,3.10
2023-02-17T01:14:39.307Z,3.05
2023-02-17T01:17:12.272Z,3.42
2023-02-17T01:19:45.163Z,3.80
2023-02-17T01:22:18.057Z,3.25
2023-02-17T01:24:50.974Z,3.55
2023-02-17T01:27:25.298Z,4.10
2023-02-17T01:29:58.540Z,3.78
2023-02-17T01:32:31.418Z,3.15
2023-02-17T01:35:04.327Z,2.95
2023-02-17T01:37:37.256Z,3.65
2023-02-17T01:40:10.965Z,3.63
2023-02-17T01:42:45.414Z,3.72
2023-02-17T01:45:41.732Z,3.40
2023-02-17T01:48:17.839Z,3.35
2023-02-17T01:50:55.654Z,2.88
2023-02-17T01:53:34.643Z,3.13
2023-02-17T01:56:09.255Z,3.17
2023-02-17T01:58:46.821Z,3.15
2023-02-17T02:01:19.790Z,3.35
2023-02-17T02:03:53.603Z,3.17
2023-02-17T02:06:29.488Z,3.47
2023-02-17T02:09:06.140Z,3.20
2023-02-17T02:11:39.238Z,3.40
2023-02-17T02:14:14.101Z,3.50
2023-02-17T02:16:56.222Z,3.42
2023-02-17T02:20:01.865Z,3.00
2023-02-17T02:22:49.421Z,3.40
2023-02-17T02:25:42.848Z,3.20
2023-02-17T02:28:28.589Z,3.00
2023-02-17T02:31:20.894Z,3.13
2023-02-17T02:33:59.265Z,2.90
2023-02-17T02:36:35.559Z,3.05
2023-02-17T02:39:12.767Z,3.22
2023-02-17T02:41:49.020Z,2.90
2023-02-17T02:44:23.220Z,3.17
2023-02-17T02:46:59.613Z,2.67
2023-02-17T02:49:37.250Z,3.65
2023-02-17T02:52:18.924Z,3.20
2023-02-17T02:55:01.070Z,3.25
2023-02-17T02:57:44.208Z,2.90
2023-02-17T03:00:26.348Z,3.10
2023-02-17T03:03:04.427Z,2.53
2023-02-17T03:05:50.726Z,2.67
2023-02-17T03:08:32.887Z,2.95
2023-02-17T03:11:06.192Z,2.85
2023-02-17T03:13:39.643Z,3.30
2023-02-17T03:16:14.792Z,2.80
2023-02-17T03:18:48.509Z,2.83
2023-02-17T03:21:23.276Z,2.90
2023-02-17T03:23:56.248Z,2.58
2023-02-17T03:26:29.289Z,3.78
2023-02-17T03:29:02.344Z,3.15
2023-02-17T03:31:36.209Z,2.95
2023-02-17T03:34:09.789Z,2.80
2023-02-17T03:36:44.110Z,2.97
2023-02-17T03:39:17.393Z,3.13
2023-02-17T03:41:51.686Z,3.35
2023-02-17T03:44:24.552Z,2.55
2023-02-17T03:46:57.469Z,2.63
2023-02-17T03:49:30.583Z,2.88
2023-02-17T03:52:05.413Z,2.65
2023-02-17T03:54:38.335Z,2.75
2023-02-17T03:57:11.271Z,3.20
2023-02-17T03:59:44.214Z,3.00
2023-02-17T04:02:17.165Z,2.88
2023-02-17T04:04:50.233Z,2.50
2023-02-17T04:07:24.603Z,3.05
2023-02-17T04:09:57.492Z,3.05
2023-02-17T04:12:30.896Z,2.95
2023-02-17T04:15:03.933Z,2.90
2023-02-17T04:17:37.690Z,3.00
2023-02-17T04:20:11.548Z,2.97
2023-02-17T04:22:46.382Z,3.20
2023-02-17T04:25:19.606Z,3.25
2023-02-17T04:27:52.449Z,3.22
2023-02-17T04:30:25.420Z,3.30
2023-02-17T04:32:58.582Z,3.22
2023-02-17T04:35:31.674Z,2.95
2023-02-17T04:38:08.737Z,2.97
2023-02-17T04:40:41.769Z,3.67
2023-02-17T04:43:14.634Z,3.15
2023-02-17T04:45:47.513Z,3.15
2023-02-17T04:48:20.966Z,3.45
2023-02-17T04:50:54.114Z,3.42
2023-02-17T04:53:28.696Z,2.80
2023-02-17T04:56:01.668Z,2.95
2023-02-17T04:58:34.523Z,3.22
2023-02-17T05:01:07.572Z,3.60
2023-02-17T05:03:40.524Z,3.13
2023-02-17T05:06:13.447Z,3.40
2023-02-17T05:08:50.615Z,3.15
2023-02-17T05:11:23.520Z,3.17
2023-02-17T05:13:56.643Z,2.92
2023-02-17T05:16:29.515Z,2.90
2023-02-17T05:19:02.414Z,3.67
2023-02-17T05:21:35.405Z,3.13
2023-02-17T05:24:09.803Z,2.97
2023-02-17T05:26:42.652Z,3.13
2023-02-17T05:29:15.716Z,3.17
2023-02-17T05:31:48.732Z,3.05
2023-02-17T05:34:21.676Z,3.00
2023-02-17T05:36:54.614Z,2.42
2023-02-17T05:39:29.078Z,2.45
2023-02-17T05:42:02.062Z,2.67
2023-02-17T05:44:34.930Z,3.05
2023-02-17T05:47:07.850Z,2.60
2023-02-17T05:49:40.721Z,2.58
2023-02-17T05:52:13.684Z,2.55
2023-02-17T05:54:48.117Z,3.00
2023-02-17T05:57:21.385Z,2.88
2023-02-17T05:59:54.321Z,3.08
2023-02-17T06:02:27.262Z,2.40
2023-02-17T06:05:00.579Z,2.50
2023-02-17T06:07:33.527Z,2.20
2023-02-17T06:10:09.807Z,2.08
2023-02-17T06:12:42.798Z,2.30
2023-02-17T06:15:15.857Z,2.50
2023-02-17T06:17:48.800Z,2.45
2023-02-17T06:20:21.986Z,2.30
2023-02-17T06:22:54.850Z,2.33
2023-02-17T06:25:29.131Z,2.45
2023-02-17T06:28:02.187Z,2.42
2023-02-17T06:30:35.231Z,2.20
2023-02-17T06:33:08.109Z,2.50
2023-02-17T06:35:41.156Z,2.28
2023-02-17T06:38:14.105Z,2.28
2023-02-17T06:40:48.486Z,2.22
2023-02-17T06:43:21.528Z,2.33
2023-02-17T06:45:54.635Z,2.55
2023-02-17T06:48:27.517Z,2.00
2023-02-17T06:51:00.758Z,2.58
2023-02-17T06:53:33.638Z,2.35
2023-02-17T06:56:08.550Z,2.15
2023-02-17T06:58:41.493Z,1.70
2023-02-17T07:01:18.940Z,2.13
2023-02-17T07:03:51.795Z,2.00
2023-02-17T07:06:25.850Z,2.22
2023-02-17T07:08:58.805Z,2.30
2023-02-17T07:11:33.243Z,2.10
2023-02-17T07:14:06.858Z,2.25
2023-02-17T07:16:40.160Z,2.00
2023-02-17T07:19:13.459Z,2.17
2023-02-17T07:21:46.720Z,1.90
2023-02-17T07:24:19.826Z,2.30
2023-02-17T07:26:56.267Z,2.42
2023-02-17T07:29:29.342Z,2.22
2023-02-17T07:32:02.738Z,2.40
2023-02-17T07:34:35.923Z,2.20
2023-02-17T07:37:09.365Z,1.92
2023-02-17T07:39:42.269Z,2.15
2023-02-17T07:42:16.896Z,2.00
2023-02-17T07:44:49.925Z,2.17
2023-02-17T07:47:22.801Z,2.13
2023-02-17T07:49:55.959Z,2.00
2023-02-17T07:52:28.976Z,2.05
2023-02-17T07:55:01.845Z,1.80
2023-02-17T07:57:36.138Z,2.15
2023-02-17T08:00:10.991Z,2.03
2023-02-17T08:02:44.044Z,2.33
2023-02-17T08:05:17.029Z,2.13
2023-02-17T08:08:09.962Z,2.15
2023-02-17T08:11:00.668Z,2.65
2023-02-17T08:13:35.041Z,1.85
2023-02-17T08:16:08.340Z,2.00
2023-02-17T08:18:41.408Z,2.30
2023-02-17T08:21:14.258Z,2.50
2023-02-17T08:23:47.250Z,2.25
2023-02-17T08:26:20.656Z,2.05
2023-02-17T08:28:54.992Z,2.00
2023-02-17T08:31:30.787Z,2.45
2023-02-17T08:34:08.045Z,2.20
2023-02-17T08:36:41.293Z,2.08
2023-02-17T08:39:18.255Z,2.20
2023-02-17T08:41:51.573Z,2.38
2023-02-17T08:44:26.062Z,2.22
2023-02-17T08:46:58.902Z,2.25
2023-02-17T08:49:32.814Z,2.47
2023-02-17T08:52:06.102Z,2.05
2023-02-17T08:54:39.455Z,2.30
2023-02-17T08:57:12.429Z,2.03
2023-02-17T08:59:48.175Z,2.10
2023-02-17T09:02:21.284Z,2.60
2023-02-17T09:04:54.450Z,4.60
2023-02-17T09:07:27.802Z,4.90
2023-02-17T09:10:01.519Z,4.57
2023-02-17T09:12:34.607Z,3.45
2023-02-17T09:15:10.313Z,2.80
2023-02-17T09:17:43.246Z,2.55
2023-02-17T09:20:24.790Z,2.75
2023-02-17T09:22:58.263Z,2.40
2023-02-17T09:25:31.167Z,3.30
2023-02-17T09:28:04.193Z,2.47
2023-02-17T09:30:38.934Z,2.42
2023-02-17T09:33:11.930Z,2.40
2023-02-17T09:35:45.182Z,2.33
2023-02-17T09:38:18.067Z,2.13
2023-02-17T09:40:51.549Z,2.08
2023-02-17T09:43:29.872Z,1.85
2023-02-17T09:46:11.031Z,2.65
2023-02-17T09:48:45.279Z,2.35
2023-02-17T09:51:24.086Z,2.20
2023-02-17T09:54:05.937Z,2.53
2023-02-17T09:59:17.748Z,2.30
2023-02-17T10:01:54.793Z,2.33
2023-02-17T10:04:32.926Z,2.53
2023-02-17T10:07:12.684Z,2.40
2023-02-17T10:09:51.566Z,2.65
2023-02-17T10:12:28.556Z,2.42
2023-02-17T10:15:06.529Z,3.42
2023-02-17T10:17:47.226Z,2.33
2023-02-17T10:20:24.739Z,2.40
2023-02-17T10:23:04.413Z,2.28
2023-02-17T10:25:52.383Z,2.78
2023-02-17T10:28:39.759Z,2.45
2023-02-17T10:31:16.441Z,2.58
2023-02-17T10:33:57.654Z,2.85
2023-02-17T10:36:41.202Z,3.10
2023-02-17T10:39:30.504Z,2.13
2023-02-17T10:42:05.314Z,2.58
2023-02-17T10:44:39.259Z,2.80
2023-02-17T10:47:12.591Z,2.50
2023-02-17T10:49:50.772Z,2.58
2023-02-17T10:52:25.622Z,2.45
2023-02-17T10:55:11.296Z,2.42
2023-02-17T11:00:26.997Z,2.38
2023-02-17T11:03:00.128Z,2.60
2023-02-17T11:05:36.009Z,2.35
2023-02-17T11:08:30.080Z,2.80
2023-02-17T11:11:06.675Z,2.80
2023-02-17T11:13:45.336Z,3.13
2023-02-17T11:16:26.710Z,2.92
2023-02-17T11:18:59.804Z,2.70
2023-02-17T11:21:34.815Z,2.83
2023-02-17T11:24:08.156Z,2.53
2023-02-17T11:26:41.081Z,3.00
2023-02-17T11:29:18.364Z,2.60
2023-02-17T11:31:56.116Z,2.40
2023-02-17T11:34:33.024Z,3.00
2023-02-17T11:37:22.076Z,3.05
2023-02-17T11:39:56.837Z,2.78
2023-02-17T11:42:31.914Z,2.97
2023-02-17T11:45:18.433Z,2.30
2023-02-17T11:48:06.159Z,2.50
2023-02-17T11:50:48.160Z,2.70
2023-02-17T11:53:34.713Z,3.05
2023-02-17T11:56:16.111Z,2.50
2023-02-17T11:59:12.944Z,2.30
2023-02-17T12:02:26.333Z,2.47
2023-02-17T12:05:15.361Z,1.88
2023-02-17T12:08:00.764Z,2.38
2023-02-17T12:10:47.625Z,2.45
2023-02-17T12:13:32.486Z,2.30
2023-02-17T12:16:30.165Z,2.75
2023-02-17T12:19:11.452Z,1.92
2023-02-17T12:22:03.018Z,3.00
2023-02-17T12:24:54.703Z,2.10
2023-02-17T12:27:43.467Z,1.73
2023-02-17T12:30:27.878Z,2.13
2023-02-17T12:33:20.195Z,2.30
2023-02-17T12:35:56.287Z,1.95
2023-02-17T12:38:33.280Z,2.72
2023-02-17T12:41:11.280Z,3.10
2023-02-17T12:43:49.451Z,2.55
2023-02-17T12:46:27.080Z,2.67
2023-02-17T12:49:07.486Z,2.35
2023-02-17T12:51:46.431Z,2.72
2023-02-17T12:54:25.743Z,2.25
2023-02-17T12:57:09.170Z,2.03
2023-02-17T12:59:45.669Z,2.38
2023-02-17T13:02:19.967Z,1.92
2023-02-17T13:04:54.860Z,2.40
2023-02-17T13:07:40.832Z,2.58
2023-02-17T13:10:29.294Z,2.30
2023-02-17T13:13:07.476Z,2.58
2023-02-17T13:15:44.067Z,2.55
2023-02-17T13:18:29.986Z,2.58
2023-02-17T13:21:16.173Z,2.22
2023-02-17T13:24:00.806Z,2.30
2023-02-17T13:26:35.466Z,2.08
2023-02-17T13:29:23.164Z,2.33
2023-02-17T13:31:59.813Z,2.63
2023-02-17T13:34:36.100Z,2.03
2023-02-17T13:37:28.384Z,2.38
2023-02-17T13:40:02.163Z,2.67
2023-02-17T13:42:38.409Z,1.90
2023-02-17T13:45:26.549Z,2.45
2023-02-17T13:48:12.432Z,2.50
2023-02-17T13:50:47.571Z,2.05
2023-02-17T13:53:28.680Z,2.15
2023-02-17T13:56:04.911Z,2.00
2023-02-17T13:58:40.475Z,1.98
2023-02-17T14:01:17.667Z,2.03
2023-02-17T14:03:54.266Z,2.60
2023-02-17T14:06:30.639Z,2.25
2023-02-17T14:09:13.320Z,2.35
2023-02-17T14:11:46.349Z,2.15
2023-02-17T14:14:19.724Z,2.35
2023-02-17T14:17:01.854Z,2.50
2023-02-17T14:19:45.996Z,2.22
2023-02-17T14:22:28.912Z,2.13
2023-02-17T14:25:04.518Z,2.47
2023-02-17T14:27:48.573Z,2.40
2023-02-17T14:30:30.624Z,2.30
2023-02-17T14:33:06.276Z,2.75
2023-02-17T14:35:51.494Z,2.30
2023-02-17T14:38:26.912Z,2.58
2023-02-17T14:41:01.291Z,2.75
2023-02-17T14:43:34.670Z,2.95
2023-02-17T14:46:07.854Z,2.63
2023-02-17T14:48:40.909Z,2.55
2023-02-17T14:51:17.184Z,2.72
2023-02-17T14:53:51.345Z,2.35
2023-02-17T14:56:27.704Z,2.65
2023-02-17T14:59:00.881Z,2.80
2023-02-17T15:01:33.960Z,2.63
2023-02-17T15:04:06.989Z,2.60
2023-02-17T15:06:43.561Z,2.20
2023-02-17T15:09:18.466Z,3.10
2023-02-17T15:11:51.863Z,2.20
2023-02-17T15:14:24.750Z,2.63
2023-02-17T15:16:57.757Z,2.45
2023-02-17T15:19:30.685Z,2.67
2023-02-17T15:22:06.891Z,2.88
2023-02-17T15:24:41.071Z,2.55
2023-02-17T15:27:17.420Z,2.70
2023-02-17T15:29:50.391Z,2.53
2023-02-17T15:32:24.121Z,2.75
2023-02-17T15:34:57.860Z,2.50
2023-02-17T15:37:32.522Z,2.80
2023-02-17T15:40:05.992Z,2.45
2023-02-17T15:42:39.026Z,2.60
2023-02-17T15:45:15.171Z,2.70
2023-02-17T15:47:49.360Z,2.80
2023-02-17T15:50:23.807Z,2.70
2023-02-17T15:52:58.128Z,2.95
2023-02-17T15:55:31.070Z,8.35
2023-02-17T15:58:05.550Z,5.43
2023-02-17T16:00:38.402Z,4.07
2023-02-17T16:03:13.517Z,2.80
2023-02-17T16:05:46.651Z,3.10
2023-02-17T16:08:21.108Z,2.80
2023-02-17T16:10:55.600Z,2.63
2023-02-17T16:13:28.983Z,2.58
2023-02-17T16:16:01.899Z,2.72
2023-02-17T16:18:34.808Z,4.03
2023-02-17T16:21:07.766Z,4.53
2023-02-17T16:23:42.970Z,3.95
2023-02-17T16:26:21.022Z,3.42
2023-02-17T16:28:54.560Z,3.20
2023-02-17T16:31:27.654Z,3.00
2023-02-17T16:34:00.584Z,2.70
2023-02-17T16:36:36.538Z,2.90
2023-02-17T16:39:14.819Z,3.13
2023-02-17T16:41:48.325Z,2.80
2023-02-17T16:44:23.241Z,2.35
2023-02-17T16:46:57.320Z,2.80
2023-02-17T16:49:33.498Z,2.88
2023-02-17T16:52:08.236Z,2.92
2023-02-17T16:54:42.480Z,3.22
2023-02-17T16:57:18.388Z,2.60
2023-02-17T16:59:51.317Z,2.75
2023-02-17T17:02:24.315Z,2.80
2023-02-17T17:04:57.241Z,3.28
2023-02-17T17:07:31.906Z,3.28
2023-02-17T17:10:16.392Z,3.53
2023-02-17T17:12:50.695Z,3.28
2023-02-17T17:15:24.175Z,3.88
2023-02-17T17:17:59.279Z,3.38
2023-02-17T17:20:35.466Z,3.38
2023-02-17T17:23:11.980Z,2.92
2023-02-17T17:25:48.568Z,3.03
2023-02-17T17:28:21.545Z,2.53
2023-02-17T17:30:54.523Z,3.28
2023-02-17T17:33:27.534Z,3.13
2023-02-17T17:36:00.377Z,2.88
2023-02-17T17:38:33.295Z,3.03
2023-02-17T17:41:07.665Z,3.40
2023-02-17T17:43:40.941Z,3.58
2023-02-17T17:46:16.518Z,4.60
2023-02-17T17:48:50.004Z,4.38
2023-02-17T17:51:24.656Z,5.53
2023-02-17T17:53:58.274Z,5.57
2023-02-17T17:56:35.182Z,6.03
2023-02-17T17:59:14.661Z,4.05
2023-02-17T18:01:47.619Z,3.50
2023-02-17T18:04:20.615Z,3.00
2023-02-17T18:06:56.829Z,3.03
2023-02-17T18:09:34.320Z,3.78
2023-02-17T18:12:12.536Z,2.90
2023-02-17T18:14:49.056Z,2.88
2023-02-17T18:17:23.872Z,2.40
2023-02-17T18:19:57.346Z,2.92
2023-02-17T18:22:30.330Z,2.80
2023-02-17T18:25:03.184Z,4.47
2023-02-17T18:27:42.518Z,3.50
2023-02-17T18:30:19.164Z,3.78
2023-02-17T18:32:53.024Z,3.60
2023-02-17T18:35:26.031Z,3.05
2023-02-17T18:37:58.919Z,2.95
2023-02-17T18:40:31.918Z,3.92
2023-02-17T18:43:06.825Z,3.38
2023-02-17T18:45:39.672Z,3.20
2023-02-17T18:48:12.777Z,3.05
2023-02-17T18:50:46.338Z,3.38
2023-02-17T18:53:19.966Z,3.60
2023-02-17T18:55:52.869Z,3.60
2023-02-17T18:58:27.475Z,2.90
2023-02-17T19:01:00.376Z,3.28
2023-02-17T19:03:33.299Z,2.75
2023-02-17T19:06:10.475Z,2.88
2023-02-17T19:08:43.675Z,2.40
2023-02-17T19:11:18.083Z,2.45
2023-02-17T19:13:53.392Z,2.80
2023-02-17T19:16:28.914Z,2.40
2023-02-17T19:19:02.160Z,2.90
2023-02-17T19:21:36.417Z,3.20
2023-02-17T19:24:10.729Z,3.33
2023-02-17T19:26:44.250Z,2.65
2023-02-17T19:29:18.692Z,2.28
2023-02-17T19:31:51.722Z,2.08
2023-02-17T19:34:24.784Z,2.00
2023-02-17T19:36:58.390Z,2.20
2023-02-17T19:39:31.583Z,1.92
2023-02-17T19:42:05.171Z,2.03
2023-02-17T19:44:39.398Z,2.08
2023-02-17T19:47:12.513Z,1.85
2023-02-17T19:49:45.472Z,2.15
2023-02-17T19:52:18.424Z,2.33
2023-02-17T19:54:51.332Z,1.98
2023-02-17T19:57:24.504Z,2.13
2023-02-17T19:59:59.169Z,2.00
2023-02-17T20:02:32.115Z,2.30
2023-02-17T20:05:06.000Z,2.20
2023-02-17T20:07:39.207Z,1.70
2023-02-17T20:10:13.089Z,1.70
2023-02-17T20:15:20.597Z,1.70
2023-02-17T20:17:53.568Z,2.40
2023-02-17T20:20:26.477Z,1.95
2023-02-17T20:22:59.379Z,1.90
2023-02-17T20:25:32.345Z,1.60
2023-02-17T20:28:05.420Z,1.58
2023-02-17T20:30:39.798Z,1.50
2023-02-17T20:33:13.289Z,1.52
2023-02-17T20:35:46.198Z,1.48
2023-02-17T20:38:19.149Z,1.90
2023-02-17T20:40:52.390Z,1.80
2023-02-17T20:43:25.643Z,1.38
2023-02-17T20:46:00.465Z,1.50
2023-02-17T20:48:33.558Z,1.70
2023-02-17T20:51:07.066Z,1.58
2023-02-17T20:53:40.047Z,1.48
2023-02-17T20:56:15.160Z,1.95
2023-02-17T20:58:48.481Z,1.63
2023-02-17T21:01:22.890Z,1.92
2023-02-17T21:03:56.499Z,1.98
2023-02-17T21:06:31.992Z,2.00
2023-02-17T21:09:07.769Z,2.95
2023-02-17T21:11:40.870Z,2.03
2023-02-17T21:14:14.085Z,2.20
2023-02-17T21:16:48.645Z,2.33
2023-02-17T21:19:22.115Z,2.33
2023-02-17T21:21:55.001Z,2.05
2023-02-17T21:24:28.302Z,2.42
2023-02-17T21:27:01.199Z,2.60
2023-02-17T21:29:34.120Z,2.20
2023-02-17T21:32:08.564Z,2.42
2023-02-17T21:34:41.517Z,2.45
2023-02-17T21:37:14.407Z,1.90
2023-02-17T21:39:47.340Z,1.90
2023-02-17T21:42:36.198Z,2.58
2023-02-17T21:45:10.008Z,2.60
2023-02-17T21:47:44.332Z,2.15
2023-02-17T21:50:17.590Z,2.20
2023-02-17T21:52:50.430Z,2.38
2023-02-17T21:55:23.735Z,2.00
2023-02-17T21:57:56.687Z,1.98
2023-02-17T22:00:29.674Z,1.90
2023-02-17T22:03:03.901Z,1.90
2023-02-17T22:05:36.787Z,1.80
2023-02-17T22:08:09.672Z,2.17
2023-02-17T22:10:43.817Z,2.45
2023-02-17T22:13:16.794Z,2.28
2023-02-17T22:15:58.447Z,2.20
2023-02-17T22:18:32.734Z,2.30
2023-02-17T22:21:10.247Z,2.55
2023-02-17T22:23:43.457Z,2.72
2023-02-17T22:26:18.283Z,2.55
2023-02-17T22:28:51.439Z,2.70
2023-02-17T22:31:26.625Z,2.55
2023-02-17T22:34:04.067Z,2.80
2023-02-17T22:36:38.546Z,2.30
2023-02-17T22:39:11.420Z,2.42
2023-02-17T22:41:44.596Z,2.60
2023-02-17T22:44:17.498Z,2.75
2023-02-17T22:46:50.533Z,2.13
2023-02-17T22:49:24.889Z,2.38
2023-02-17T22:51:57.848Z,2.65
2023-02-17T22:54:32.164Z,2.50
2023-02-17T22:57:05.156Z,2.42
2023-02-17T22:59:38.106Z,2.35
2023-02-17T23:02:11.033Z,2.20
2023-02-17T23:04:45.373Z,2.40
2023-02-17T23:07:18.371Z,2.53
2023-02-17T23:09:51.413Z,2.60
2023-02-17T23:12:25.910Z,2.45
2023-02-17T23:14:59.437Z,2.78
2023-02-17T23:17:52.983Z,2.83
2023-02-17T23:20:27.341Z,2.65
2023-02-17T23:23:00.298Z,3.10
2023-02-17T23:25:33.312Z,3.00
2023-02-17T23:28:07.176Z,3.10
2023-02-17T23:30:42.169Z,2.80
2023-02-17T23:33:15.461Z,2.80
2023-02-17T23:35:50.297Z,2.72
2023-02-17T23:38:23.345Z,2.72
2023-02-17T23:40:56.337Z,2.38
2023-02-17T23:43:29.821Z,2.80
2023-02-17T23:46:03.061Z,2.35
2023-02-17T23:48:35.992Z,2.50
2023-02-17T23:51:10.611Z,2.70
2023-02-17T23:53:43.677Z,2.50
2023-02-17T23:56:19.710Z,2.25
2023-02-17T23:58:52.906Z,2.35
